Time;durP1;ratioP1;P1;durP2;ratioP2;P2;SDS_P1;SDS_P2;PMS_P1;PMS_P2;Temp;Humidity;BMP_temperature;BMP_pressure;BME280_temperature;BME280_humidity;BME280_pressure;Samples;Min_cycle;Max_cycle;Signal;HPM_P1;HPM_P2
2022/05/23 00:02:21;;;;;;;22.80;18.03;;;;;;;36.46;45.04;101156.31;5034700;28;20534;-72
2022/05/23 00:04:47;;;;;;;28.90;18.57;;;;;;;36.61;45.09;101152.63;5052799;28;20398;-74
2022/05/23 00:07:28;;;;;;;34.37;21.50;;;;;;;36.40;45.13;101152.91;5034748;28;20806;-73
2022/05/23 00:09:54;;;;;;;38.97;23.27;;;;;;;36.30;45.65;101137.56;5034647;28;20434;-73
2022/05/23 00:12:22;;;;;;;27.90;20.40;;;;;;;36.39;45.19;101132.34;5034547;28;20421;-72
2022/05/23 00:14:50;;;;;;;32.43;22.60;;;;;;;36.39;45.89;101129.66;5034716;28;20436;-72
2022/05/23 00:17:17;;;;;;;35.70;25.03;;;;;;;36.43;45.72;101130.69;5034637;28;20468;-72
2022/05/23 00:19:44;;;;;;;33.77;24.70;;;;;;;36.28;46.06;101120.84;5034490;28;20419;-74
2022/05/23 00:22:10;;;;;;;39.87;27.37;;;;;;;36.10;45.94;101112.69;5034631;28;20407;-72
2022/05/23 00:24:36;;;;;;;36.63;27.70;;;;;;;36.16;46.39;101109.66;5034394;28;20417;-73
2022/05/23 00:27:04;;;;;;;32.63;26.07;;;;;;;36.07;46.14;101105.97;5033512;28;20468;-73
2022/05/23 00:29:30;;;;;;;38.20;26.77;;;;;;;36.22;45.99;101105.81;5034412;28;20415;-73
2022/05/23 00:37:27;;;;;;;37.70;31.77;;;;;;;36.15;46.17;101099.13;5052283;28;20390;-72
2022/05/23 00:39:53;;;;;;;38.27;27.50;;;;;;;36.11;46.33;101100.81;5034213;28;20862;-73
2022/05/23 00:45:12;;;;;;;36.73;26.00;;;;;;;36.06;46.44;101091.66;5052252;28;20434;-72
2022/05/23 00:47:38;;;;;;;37.40;27.80;;;;;;;36.10;46.36;101096.50;5034115;28;20418;-72
2022/05/23 00:50:04;;;;;;;42.23;29.40;;;;;;;36.12;46.02;101086.19;5034368;28;20463;-74
2022/05/23 00:52:42;;;;;;;39.70;28.77;;;;;;;36.06;46.05;101083.56;5034208;28;20442;-73
2022/05/23 00:55:15;;;;;;;32.33;26.87;;;;;;;36.14;46.29;101071.31;5033812;28;20915;-73
2022/05/23 00:57:46;;;;;;;39.80;28.10;;;;;;;36.20;46.31;101074.75;5033938;28;20435;-73
2022/05/23 01:00:13;;;;;;;39.03;28.83;;;;;;;36.26;46.48;101070.91;5051914;28;20444;-73
2022/05/23 01:02:41;;;;;;;42.23;28.70;;;;;;;36.16;46.05;101065.63;5033958;28;20407;-72
2022/05/23 01:05:09;;;;;;;38.10;26.13;;;;;;;36.22;45.91;101067.19;5033913;28;20434;-72
2022/05/23 01:07:35;;;;;;;31.80;26.47;;;;;;;36.26;46.17;101070.91;5033926;28;20487;-72
2022/05/23 01:10:01;;;;;;;39.30;28.73;;;;;;;36.36;46.28;101067.28;5033800;28;20446;-73
2022/05/23 01:12:28;;;;;;;33.50;24.93;;;;;;;36.23;46.41;101057.97;5051546;28;20465;-74
2022/05/23 01:15:00;;;;;;;31.47;24.97;;;;;;;36.33;45.79;101057.84;5051883;28;20452;-74
2022/05/23 01:17:30;;;;;;;46.07;27.50;;;;;;;36.23;46.30;101052.59;5033898;28;20422;-73
2022/05/23 01:19:57;;;;;;;36.90;24.60;;;;;;;36.24;46.08;101054.19;5033718;28;20457;-72
2022/05/23 01:22:47;;;;;;;33.20;23.83;;;;;;;36.28;46.33;101055.22;5033888;28;20422;-72
2022/05/23 01:25:19;;;;;;;41.33;24.40;;;;;;;36.20;46.00;101063.94;5033885;28;20439;-72
2022/05/23 01:27:52;;;;;;;24.00;20.60;;;;;;;36.19;46.35;101063.16;5033057;28;20480;-72
2022/05/23 01:30:18;;;;;;;31.23;24.10;;;;;;;36.33;46.18;101061.34;5051694;28;20395;-73
2022/05/23 01:32:44;;;;;;;26.03;20.07;;;;;;;36.33;45.79;101060.53;5033715;28;20561;-72
2022/05/23 01:35:11;;;;;;;23.83;18.93;;;;;;;36.43;45.87;101063.16;5051462;28;20426;-74
2022/05/23 01:37:38;;;;;;;25.10;20.70;;;;;;;36.43;45.92;101060.44;5053009;28;20417;-73
2022/05/23 01:40:07;;;;;;;24.73;19.80;;;;;;;36.52;45.09;101056.00;5037567;28;20501;-73
2022/05/23 01:42:34;;;;;;;38.07;22.20;;;;;;;36.40;45.57;101066.44;5037541;28;20450;-73
2022/05/23 01:45:00;;;;;;;33.23;20.33;;;;;;;36.39;46.03;101061.28;5037417;28;20446;-73
2022/05/23 01:47:26;;;;;;;34.30;21.33;;;;;;;36.29;45.34;101051.44;5055408;28;20771;-72
2022/05/23 01:49:53;;;;;;;29.50;19.57;;;;;;;36.28;45.54;101058.72;5037460;28;20813;-72
2022/05/23 01:52:19;;;;;;;31.37;21.10;;;;;;;36.11;46.45;101047.59;5037131;28;20795;-73
2022/05/23 01:54:45;;;;;;;23.70;19.30;;;;;;;36.30;45.95;101043.03;5054894;28;20627;-72
2022/05/23 01:57:13;;;;;;;19.60;15.13;;;;;;;36.27;45.99;101046.28;5037167;28;20414;-72
2022/05/23 02:02:24;;;;;;;19.30;15.70;;;;;;;36.28;45.54;101044.41;5055030;28;20382;-72
2022/05/23 02:04:52;;;;;;;24.17;18.63;;;;;;;36.34;45.73;101043.25;5037140;28;20417;-72
2022/05/23 02:07:18;;;;;;;26.03;18.97;;;;;;;36.42;45.75;101042.63;5037011;28;20441;-70
2022/05/23 02:09:44;;;;;;;25.73;17.63;;;;;;;36.40;45.61;101036.72;5036888;28;20430;-70
2022/05/23 02:12:12;;;;;;;27.20;16.83;;;;;;;36.45;45.35;101039.31;5037025;28;20437;-71
2022/05/23 02:14:38;;;;;;;26.00;18.60;;;;;;;36.46;45.28;101035.56;5036652;28;20457;-71
2022/05/23 02:17:08;;;;;;;25.63;18.20;;;;;;;36.31;45.72;101033.81;5036909;28;20421;-72
2022/05/23 02:19:36;;;;;;;24.63;16.97;;;;;;;36.31;45.65;101030.31;5035985;28;20532;-73
2022/05/23 02:22:03;;;;;;;23.17;16.90;;;;;;;36.02;45.88;101025.81;5034982;28;20426;-72
2022/05/23 02:24:29;;;;;;;23.70;16.07;;;;;;;35.85;46.80;101024.66;5034916;28;20411;-73
2022/05/23 02:26:55;;;;;;;21.07;14.87;;;;;;;36.11;46.14;101028.69;5034644;28;20675;-72
2022/05/23 02:29:21;;;;;;;23.60;16.53;;;;;;;36.08;45.79;101025.75;5034898;28;20449;-73
2022/05/23 02:31:48;;;;;;;23.53;16.07;;;;;;;35.87;46.80;101025.97;5035271;28;20477;-71
2022/05/23 02:34:16;;;;;;;28.57;18.57;;;;;;;35.93;46.38;101022.16;5052594;28;20451;-71
2022/05/23 02:36:42;;;;;;;26.80;17.53;;;;;;;36.00;46.07;101014.50;5034558;28;20525;-71
2022/05/23 02:39:09;;;;;;;20.10;15.90;;;;;;;35.77;46.76;101010.69;5052559;28;20395;-71
2022/05/23 02:41:35;;;;;;;23.63;16.90;;;;;;;35.88;46.43;101005.19;5034370;28;20423;-71
2022/05/23 02:44:02;;;;;;;31.77;19.70;;;;;;;35.83;47.23;101011.44;5034979;28;20391;-71
2022/05/23 02:46:28;;;;;;;27.47;20.60;;;;;;;35.76;47.10;101009.09;5035651;28;20784;-71
2022/05/23 02:48:55;;;;;;;25.57;17.83;;;;;;;35.75;47.14;101001.28;5052680;28;20418;-71
2022/05/23 02:51:22;;;;;;;30.20;18.83;;;;;;;35.83;46.44;101006.03;5031764;28;20453;-71
2022/05/23 02:53:49;;;;;;;23.83;17.60;;;;;;;35.82;46.65;101004.44;5025948;28;20470;-71
2022/05/23 02:56:15;;;;;;;27.13;16.43;;;;;;;35.24;47.89;100993.69;5042590;28;20411;-71
2022/05/23 02:58:42;;;;;;;22.13;17.33;;;;;;;35.12;48.15;100996.78;5030320;28;20409;-71
2022/05/23 03:01:09;;;;;;;26.40;18.20;;;;;;;34.90;49.13;100997.19;5030239;28;20446;-71
2022/05/23 03:03:35;;;;;;;19.37;13.80;;;;;;;35.11;48.47;101003.25;5035383;28;20453;-72
2022/05/23 03:06:01;;;;;;;18.93;14.67;;;;;;;35.18;47.80;101006.44;5034570;28;20403;-73
2022/05/23 03:08:28;;;;;;;24.63;14.37;;;;;;;35.27;47.67;101003.91;5034003;28;20410;-73
2022/05/23 03:10:58;;;;;;;19.00;13.83;;;;;;;35.47;47.56;101009.13;5036041;28;20411;-72
2022/05/23 03:13:25;;;;;;;17.63;14.13;;;;;;;35.61;46.79;101011.97;5035939;28;20468;-72
2022/05/23 03:15:51;;;;;;;18.93;13.80;;;;;;;35.58;47.04;101022.53;5052439;28;20436;-73
2022/05/23 03:18:18;;;;;;;27.63;20.77;;;;;;;35.68;46.75;101028.63;5034027;28;20909;-73
2022/05/23 03:20:44;;;;;;;35.60;23.50;;;;;;;35.54;47.09;101024.97;5033802;28;20445;-72
2022/05/23 03:28:42;;;;;;;29.53;18.43;;;;;;;35.54;46.86;101035.75;5052461;28;20958;-73
2022/05/23 03:31:08;;;;;;;30.90;17.03;;;;;;;35.55;46.90;101039.28;5052842;28;20896;-73
2022/05/23 03:33:35;;;;;;;22.70;15.37;;;;;;;35.51;46.81;101036.34;5035770;28;20988;-72
2022/05/23 03:36:03;;;;;;;21.40;16.40;;;;;;;35.56;46.41;101044.41;5035417;28;20501;-72
2022/05/23 03:38:29;;;;;;;21.83;15.70;;;;;;;35.61;46.39;101030.06;5035413;28;20417;-72
2022/05/23 03:40:55;;;;;;;20.13;16.70;;;;;;;35.59;46.78;101037.63;5053342;28;20395;-73
2022/05/23 03:43:21;;;;;;;26.07;18.03;;;;;;;35.46;46.70;101034.50;5035302;28;20395;-72
2022/05/23 03:45:48;;;;;;;33.63;17.33;;;;;;;35.50;46.57;101040.94;5035276;28;20407;-72
2022/05/23 03:48:14;;;;;;;31.50;18.50;;;;;;;35.45;46.75;101034.78;5051874;28;20386;-71
2022/05/23 03:50:41;;;;;;;22.97;17.90;;;;;;;35.46;46.99;101049.88;5035160;28;20415;-71
2022/05/23 03:53:07;;;;;;;28.93;17.80;;;;;;;35.13;47.34;101055.00;5035023;28;20561;-73
2022/05/23 03:55:33;;;;;;;23.10;15.37;;;;;;;35.16;47.44;101057.13;5031537;28;20820;-73
2022/05/23 03:57:59;;;;;;;19.87;14.00;;;;;;;35.37;46.52;101052.38;5033031;28;20494;-73
2022/05/23 04:00:25;;;;;;;21.40;15.00;;;;;;;35.34;46.46;101062.91;5031411;28;20422;-72
2022/05/23 04:02:51;;;;;;;15.03;12.73;;;;;;;35.41;46.59;101069.56;5031702;28;20814;-73
2022/05/23 04:05:18;;;;;;;20.57;13.90;;;;;;;35.51;46.72;101061.44;5031297;28;20926;-73
2022/05/23 04:07:44;;;;;;;32.70;19.43;;;;;;;35.61;46.34;101065.94;5031508;28;20502;-73
2022/05/23 04:10:16;;;;;;;27.90;19.60;;;;;;;35.63;46.06;101061.06;5031456;28;20509;-73
2022/05/23 04:12:43;;;;;;;31.77;19.80;;;;;;;35.53;46.40;101067.34;5031388;28;20447;-73
2022/05/23 04:15:10;;;;;;;26.07;19.87;;;;;;;35.44;46.65;101079.03;5031518;28;20404;-73
2022/05/23 04:17:36;;;;;;;22.90;16.40;;;;;;;35.34;46.95;101084.50;5031311;28;20411;-72
2022/05/23 04:20:03;;;;;;;39.50;24.17;;;;;;;35.36;46.93;101087.69;5031363;28;20408;-72
2022/05/23 04:22:29;;;;;;;38.60;24.43;;;;;;;35.43;46.59;101099.81;5031350;28;20412;-72
2022/05/23 04:24:55;;;;;;;33.27;22.37;;;;;;;35.31;46.74;101109.34;5032544;28;20420;-72
2022/05/23 04:27:22;;;;;;;29.00;21.93;;;;;;;35.41;46.22;101104.66;5031208;28;20412;-73
2022/05/23 04:29:48;;;;;;;24.13;20.43;;;;;;;35.33;46.54;101109.84;5031225;28;20835;-72
2022/05/23 04:35:13;;;;;;;18.50;14.30;;;;;;;35.27;46.87;101114.47;5032330;28;20752;-73
2022/05/23 04:37:45;;;;;;;15.80;12.37;;;;;;;35.35;46.96;101107.66;5031064;28;20523;-73
2022/05/23 04:40:14;;;;;;;20.20;13.60;;;;;;;35.51;46.00;101110.00;5030994;28;20411;-72
2022/05/23 04:42:40;;;;;;;18.60;12.63;;;;;;;35.35;47.06;101111.16;5030984;28;20408;-73
2022/05/23 04:45:08;;;;;;;20.20;14.70;;;;;;;35.23;47.11;101111.53;5030863;28;20427;-72
2022/05/23 04:50:23;;;;;;;18.57;13.80;;;;;;;35.55;46.40;101112.16;5021864;28;20418;-71
2022/05/23 04:52:51;;;;;;;15.70;13.53;;;;;;;35.59;46.56;101107.78;5030811;28;20447;-71
2022/05/23 04:55:18;;;;;;;16.17;13.67;;;;;;;35.53;46.00;101112.41;5048263;28;20964;-73
2022/05/23 04:57:44;;;;;;;18.20;13.03;;;;;;;35.55;46.35;101118.34;5034080;28;20817;-73
2022/05/23 05:00:14;;;;;;;21.27;14.37;;;;;;;35.64;46.47;101118.53;5033987;28;20419;-74
2022/05/23 05:02:41;;;;;;;16.87;13.30;;;;;;;35.64;46.53;101126.63;5051940;28;20415;-72
2022/05/23 05:05:08;;;;;;;19.93;13.97;;;;;;;35.63;46.50;101123.13;5034135;28;20423;-72
2022/05/23 05:07:34;;;;;;;19.70;14.33;;;;;;;35.63;46.68;101127.72;5033790;28;20863;-72
2022/05/23 05:10:00;;;;;;;23.83;14.60;;;;;;;35.63;46.33;101122.31;5033931;28;20431;-72
2022/05/23 05:12:26;;;;;;;19.43;13.70;;;;;;;35.65;46.56;101128.22;5034992;28;20480;-71
2022/05/23 05:14:52;;;;;;;17.07;14.73;;;;;;;35.53;46.53;101131.28;5038318;28;20418;-73
2022/05/23 05:17:19;;;;;;;24.40;16.80;;;;;;;35.47;46.81;101132.41;5038046;28;20797;-73
2022/05/23 05:19:45;;;;;;;21.87;16.40;;;;;;;35.50;46.63;101129.97;5055703;28;20430;-72
2022/05/23 05:22:11;;;;;;;16.43;14.50;;;;;;;35.43;46.89;101137.59;5037701;28;20445;-73
2022/05/23 05:24:37;;;;;;;21.83;13.47;;;;;;;35.44;46.71;101136.50;5037940;28;20512;-72
2022/05/23 05:27:04;;;;;;;18.57;13.87;;;;;;;35.47;46.74;101144.00;5037774;28;20419;-72
2022/05/23 05:29:30;;;;;;;20.93;15.93;;;;;;;35.48;46.77;101148.34;5034306;28;20847;-72
2022/05/23 05:32:02;;;;;;;26.93;12.93;;;;;;;35.31;46.82;101157.88;5027793;28;20415;-72
2022/05/23 05:34:38;;;;;;;19.37;14.67;;;;;;;35.39;46.90;101147.28;5016160;28;20459;-75
2022/05/23 05:37:14;;;;;;;19.80;14.70;;;;;;;35.43;46.47;101151.06;5022749;28;20418;-72
2022/05/23 05:39:41;;;;;;;32.60;18.10;;;;;;;35.51;46.21;101150.47;5027270;28;20951;-71
2022/05/23 05:44:43;;;;;;;19.70;15.70;;;;;;;35.30;46.56;101165.19;5023469;28;20849;-71
2022/05/23 05:47:12;;;;;;;25.57;16.53;;;;;;;35.43;46.88;101166.47;5003852;28;21026;-70
2022/05/23 05:49:41;;;;;;;20.63;15.13;;;;;;;35.53;46.06;101172.56;5000758;28;20416;-70
2022/05/23 05:52:12;;;;;;;24.90;17.90;;;;;;;35.57;46.04;101174.72;5006011;28;20463;-70
2022/05/23 05:54:40;;;;;;;19.00;15.47;;;;;;;35.43;46.45;101183.44;5031915;28;20505;-71
2022/05/23 05:57:08;;;;;;;22.70;16.50;;;;;;;35.73;45.61;101187.00;5004206;28;20448;-71
2022/05/23 05:59:35;;;;;;;21.40;15.60;;;;;;;35.72;45.76;101198.84;5007810;28;20518;-71
2022/05/23 06:02:01;;;;;;;20.03;16.03;;;;;;;35.55;45.80;101191.19;5024507;28;20453;-72
2022/05/23 06:04:27;;;;;;;21.20;16.17;;;;;;;35.29;46.68;101198.59;5023837;28;20415;-72
2022/05/23 06:12:22;;;;;;;25.97;19.57;;;;;;;35.38;46.21;101210.44;5027317;28;20402;-71
2022/05/23 06:14:48;;;;;;;26.77;17.93;;;;;;;35.52;46.37;101210.63;5025305;28;20457;-72
2022/05/23 06:17:14;;;;;;;28.10;18.10;;;;;;;34.95;46.85;101223.59;5031913;28;20783;-73
2022/05/23 06:19:46;;;;;;;27.50;21.20;;;;;;;35.02;46.68;101226.00;5033617;28;20423;-72
2022/05/23 06:22:13;;;;;;;25.70;19.50;;;;;;;35.26;45.91;101229.66;5007811;28;20542;-72
2022/05/23 06:24:41;;;;;;;25.93;18.90;;;;;;;35.20;46.23;101229.97;5005584;28;20465;-72
2022/05/23 06:27:09;;;;;;;26.40;17.20;;;;;;;35.55;45.40;101225.47;5043882;23;20920;-72
2022/05/23 06:29:36;;;;;;;26.10;19.50;;;;;;;35.80;44.95;101219.88;5016043;28;20427;-71
2022/05/23 06:32:02;;;;;;;21.00;16.13;;;;;;;35.77;44.71;101221.22;5032428;28;20423;-73
2022/05/23 06:34:29;;;;;;;23.97;17.90;;;;;;;35.85;44.94;101229.78;5013734;28;20455;-71
2022/05/23 06:36:56;;;;;;;29.70;18.90;;;;;;;35.63;45.33;101225.66;5016617;28;20432;-70
2022/05/23 06:39:23;;;;;;;27.63;17.37;;;;;;;35.65;45.09;101234.25;5016074;28;20483;-70
2022/05/23 06:41:49;;;;;;;20.80;15.43;;;;;;;35.76;44.85;101232.31;5016074;28;20453;-70
2022/05/23 06:44:16;;;;;;;30.07;16.60;;;;;;;35.90;43.83;101233.25;5016525;28;20423;-70
2022/05/23 06:46:42;;;;;;;21.20;17.47;;;;;;;35.77;44.32;101236.59;5016610;28;20428;-71
2022/05/23 06:49:08;;;;;;;20.43;16.80;;;;;;;35.83;44.22;101246.28;5016500;28;20452;-71
2022/05/23 06:51:35;;;;;;;22.60;18.70;;;;;;;35.88;44.48;101243.53;5016223;28;21217;-71
2022/05/23 06:54:01;;;;;;;34.13;21.20;;;;;;;35.72;44.87;101245.53;5016310;28;20513;-73
2022/05/23 06:56:30;;;;;;;28.57;21.00;;;;;;;35.84;44.41;101250.59;5013993;28;20546;-73
2022/05/23 06:58:56;;;;;;;33.90;24.30;;;;;;;35.86;44.44;101256.53;5019853;28;20431;-72
2022/05/23 07:01:22;;;;;;;30.20;21.83;;;;;;;35.77;44.42;101259.00;5015970;28;20416;-73
2022/05/23 07:03:48;;;;;;;23.20;18.73;;;;;;;35.82;44.54;101254.66;5032601;28;20419;-73
2022/05/23 07:14:28;;;;;;;25.23;20.47;;;;;;;35.73;44.80;101266.06;5018924;28;20455;-74
2022/05/23 07:16:55;;;;;;;28.97;19.17;;;;;;;36.02;44.50;101271.53;5015530;28;21005;-74
2022/05/23 07:19:21;;;;;;;26.00;20.20;;;;;;;36.27;43.94;101261.56;5022458;28;20838;-70
2022/05/23 07:21:48;;;;;;;25.30;19.30;;;;;;;36.22;43.51;101265.16;5019263;28;20518;-72
2022/05/23 07:24:14;;;;;;;29.37;17.93;;;;;;;36.13;44.16;101266.03;5018621;28;20459;-74
2022/05/23 07:26:40;;;;;;;26.53;19.30;;;;;;;36.19;44.45;101273.00;5000343;28;20555;-74
2022/05/23 07:29:08;;;;;;;27.47;17.50;;;;;;;36.02;44.37;101271.53;5005205;28;20458;-74
2022/05/23 07:31:34;;;;;;;27.10;18.87;;;;;;;36.21;44.17;101265.41;5022086;28;20413;-73
2022/05/23 07:34:00;;;;;;;25.83;19.20;;;;;;;36.11;44.32;101265.53;4994775;28;20459;-74
2022/05/23 07:36:26;;;;;;;21.10;18.30;;;;;;;36.13;44.22;101256.03;5025895;28;20886;-74
2022/05/23 07:38:52;;;;;;;23.57;17.70;;;;;;;35.88;44.76;101267.84;5015495;28;20846;-73
2022/05/23 07:41:18;;;;;;;28.13;17.27;;;;;;;35.91;45.11;101261.06;5015292;28;20884;-72
2022/05/23 07:43:45;;;;;;;26.87;21.20;;;;;;;35.80;45.19;101265.75;5016452;28;20949;-74
2022/05/23 07:46:13;;;;;;;26.97;20.10;;;;;;;35.65;45.45;101261.25;5005237;28;20926;-74
2022/05/23 07:48:48;;;;;;;30.50;18.73;;;;;;;34.90;47.23;101261.34;5025690;28;20439;-73
2022/05/23 07:51:17;;;;;;;34.60;18.53;;;;;;;35.03;46.94;101259.16;5015305;28;20419;-71
2022/05/23 08:01:58;;;;;;;24.20;18.60;;;;;;;35.44;46.56;101257.91;5020271;28;20934;-73
2022/05/23 08:04:24;;;;;;;24.80;18.67;;;;;;;35.39;46.56;101254.38;5024098;28;20938;-76
2022/05/23 08:06:51;;;;;;;28.10;18.87;;;;;;;35.26;46.84;101258.50;5012078;28;20428;-72
2022/05/23 08:09:17;;;;;;;22.30;17.10;;;;;;;35.24;47.12;101253.41;5027019;28;20943;-73
2022/05/23 08:11:46;;;;;;;20.87;16.00;;;;;;;35.61;46.07;101254.81;5024202;28;20784;-73
2022/05/23 08:14:13;;;;;;;28.33;17.73;;;;;;;35.81;46.04;101253.88;5021522;28;21081;-73
2022/05/23 08:16:39;;;;;;;24.40;16.37;;;;;;;35.57;46.48;101252.97;5028706;28;20910;-75
2022/05/23 08:19:06;;;;;;;18.87;14.80;;;;;;;35.33;46.75;101259.00;5032333;28;20443;-75
2022/05/23 08:21:33;;;;;;;19.93;15.33;;;;;;;35.40;47.23;101246.00;5032881;28;20453;-73
2022/05/23 08:23:59;;;;;;;29.53;19.20;;;;;;;35.75;45.81;101245.00;5014785;28;20799;-73
2022/05/23 08:26:27;;;;;;;18.40;14.50;;;;;;;35.06;47.80;101237.06;5010995;28;20574;-73
2022/05/23 08:28:53;;;;;;;20.43;13.03;;;;;;;35.19;47.65;101236.44;5015245;28;20444;-74
2022/05/23 08:31:20;;;;;;;16.77;13.23;;;;;;;34.97;48.34;101243.00;5011186;28;21291;-73
2022/05/23 08:33:46;;;;;;;15.27;11.80;;;;;;;35.55;46.95;101247.03;5003525;28;20461;-73
2022/05/23 08:36:13;;;;;;;16.40;11.07;;;;;;;35.44;47.60;101239.00;4987695;28;20544;-72
2022/05/23 08:38:39;;;;;;;19.83;11.37;;;;;;;35.54;46.97;101243.50;5007362;28;20437;-75
2022/05/23 08:41:14;;;;;;;22.23;13.83;;;;;;;35.65;47.37;101236.97;5008291;28;20452;-73
2022/05/23 08:44:02;;;;;;;16.40;11.23;;;;;;;35.77;46.90;101242.00;5007940;28;20420;-74
2022/05/23 08:46:54;;;;;;;11.73;8.97;;;;;;;36.02;45.87;101246.41;5017284;28;20436;-74
2022/05/23 08:49:32;;;;;;;15.40;8.90;;;;;;;35.58;47.01;101251.88;5025797;28;20942;-72
2022/05/23 08:52:19;;;;;;;13.47;9.33;;;;;;;35.83;46.09;101240.06;5010587;28;20447;-72
2022/05/23 08:55:04;;;;;;;15.50;11.30;;;;;;;35.94;46.29;101247.84;5009244;28;20558;-73
2022/05/23 08:57:56;;;;;;;16.17;10.83;;;;;;;35.77;46.67;101258.19;5000346;28;20965;-73
2022/05/23 09:00:38;;;;;;;12.57;8.70;;;;;;;35.64;46.55;101248.84;5000200;28;20486;-76
2022/05/23 09:03:34;;;;;;;12.97;7.90;;;;;;;35.50;46.98;101250.56;5000682;28;20475;-73
2022/05/23 09:06:20;;;;;;;17.97;8.30;;;;;;;35.78;46.01;101249.00;5024422;28;20432;-75
2022/05/23 09:08:51;;;;;;;13.83;9.97;;;;;;;36.13;46.20;101252.53;5010366;28;20539;-73
2022/05/23 09:11:50;;;;;;;15.53;9.27;;;;;;;36.10;45.30;101250.41;5027013;28;20420;-73
2022/05/23 09:14:18;;;;;;;12.37;8.30;;;;;;;36.13;45.18;101249.84;5011517;28;20566;-73
2022/05/23 09:16:46;;;;;;;18.90;8.40;;;;;;;36.00;45.94;101249.41;5025824;28;20440;-73
2022/05/23 09:19:38;;;;;;;12.57;8.60;;;;;;;36.29;45.09;101254.00;5000421;28;20440;-73
2022/05/23 09:22:18;;;;;;;19.70;9.00;;;;;;;36.70;43.83;101253.59;4999820;28;20495;-74
2022/05/23 09:24:52;;;;;;;15.77;9.43;;;;;;;36.54;44.48;101248.38;5015037;28;20807;-73
2022/05/23 09:27:43;;;;;;;14.00;9.40;;;;;;;36.30;43.88;101251.03;5009328;28;20475;-72
2022/05/23 09:30:16;;;;;;;15.57;7.93;;;;;;;36.54;44.13;101242.97;4991219;28;20473;-73
2022/05/23 09:33:09;;;;;;;16.47;7.67;;;;;;;36.50;44.01;101241.13;5015644;28;21028;-75
2022/05/23 09:35:52;;;;;;;11.73;8.37;;;;;;;36.63;43.74;101245.03;5005422;28;20432;-73
2022/05/23 09:38:25;;;;;;;13.07;7.80;;;;;;;36.20;43.93;101242.19;5000567;28;20438;-73
2022/05/23 09:40:52;;;;;;;12.30;8.23;;;;;;;36.61;43.27;101244.53;5010182;28;20427;-73
2022/05/23 09:49:20;;;;;;;15.00;6.97;;;;;;;36.67;42.64;101244.16;5011140;28;20497;-73
2022/05/23 09:52:09;;;;;;;15.00;7.20;;;;;;;36.75;42.65;101242.72;5017573;28;20426;-74
2022/05/23 09:54:47;;;;;;;28.20;6.90;;;;;;;36.66;41.19;101237.16;5001523;28;20899;-73
2022/05/23 09:57:36;;;;;;;8.43;3.80;;;;;;;36.30;40.54;101248.31;5026969;28;20474;-74
2022/05/23 10:00:23;;;;;;;8.57;4.87;;;;;;;36.31;41.25;101232.91;5005084;28;20418;-73
2022/05/23 10:03:02;;;;;;;9.17;5.50;;;;;;;36.91;40.64;101235.28;5003069;28;20539;-73
2022/05/23 10:05:35;;;;;;;7.37;4.70;;;;;;;36.93;40.61;101233.88;5019346;28;20417;-73
2022/05/23 10:08:04;;;;;;;11.83;6.07;;;;;;;37.09;40.77;101234.50;5019447;28;20417;-73
2022/05/23 10:10:33;;;;;;;13.70;6.20;;;;;;;37.26;40.56;101242.06;5005861;28;20444;-73
2022/05/23 10:13:18;;;;;;;12.63;6.00;;;;;;;37.04;40.96;101224.53;5018176;28;20961;-73
2022/05/23 10:15:46;;;;;;;9.63;5.07;;;;;;;37.27;39.87;101222.06;5010670;28;20413;-75
2022/05/23 10:18:35;;;;;;;8.30;5.90;;;;;;;37.32;39.69;101217.38;5010512;28;20413;-73
2022/05/23 10:21:18;;;;;;;11.07;5.70;;;;;;;37.24;39.46;101218.03;5010488;28;20425;-73
2022/05/23 10:24:20;;;;;;;8.80;4.50;;;;;;;36.96;39.43;101210.88;5014726;28;20811;-72
2022/05/23 10:26:54;;;;;;;9.27;6.03;;;;;;;36.81;38.37;101201.81;5006044;28;20978;-73
2022/05/23 10:29:36;;;;;;;8.03;3.97;;;;;;;36.97;37.49;101196.25;5013304;28;20413;-74
2022/05/23 10:32:09;;;;;;;6.70;4.23;;;;;;;36.74;38.73;101187.06;5029553;28;20408;-73
2022/05/23 10:35:09;;;;;;;9.27;4.93;;;;;;;36.59;39.27;101175.34;4999726;28;20881;-72
2022/05/23 10:37:36;;;;;;;10.07;4.07;;;;;;;37.11;38.78;101184.41;4951598;28;20449;-73
2022/05/23 10:43:17;;;;;;;8.47;4.07;;;;;;;37.23;38.03;101177.75;5013233;28;20779;-73
2022/05/23 10:45:48;;;;;;;12.27;4.30;;;;;;;37.26;37.85;101182.56;5013615;28;20416;-73
2022/05/23 10:48:37;;;;;;;8.60;4.00;;;;;;;37.30;37.83;101181.69;5009455;28;20436;-73
2022/05/23 10:51:29;;;;;;;10.57;5.43;;;;;;;37.35;38.52;101183.53;5013539;28;20447;-75
2022/05/23 10:54:08;;;;;;;10.73;5.77;;;;;;;37.42;37.71;101180.47;4995952;28;20445;-73
2022/05/23 10:56:42;;;;;;;7.93;4.47;;;;;;;37.16;38.88;101172.72;5020138;28;20478;-71
2022/05/23 10:59:08;;;;;;;12.53;5.80;;;;;;;37.55;38.23;101172.38;5021358;28;20408;-71
2022/05/23 11:01:55;;;;;;;10.03;4.53;;;;;;;37.10;38.59;101177.38;5017356;28;20448;-71
2022/05/23 11:04:33;;;;;;;10.17;5.43;;;;;;;37.08;39.34;101176.09;5019943;28;20404;-70
2022/05/23 11:07:02;;;;;;;8.40;5.10;;;;;;;37.04;39.38;101173.16;5012174;28;20436;-69
2022/05/23 11:10:00;;;;;;;9.60;5.10;;;;;;;37.08;39.54;101162.56;5029430;28;20515;-70
2022/05/23 11:13:08;;;;;;;11.93;5.90;;;;;;;37.63;38.77;101160.91;5030274;28;20435;-70
2022/05/23 11:16:14;;;;;;;16.67;5.90;;;;;;;37.70;38.18;101165.13;5029053;28;20436;-71
2022/05/23 11:19:14;;;;;;;9.20;5.27;;;;;;;37.52;37.71;101164.88;5026317;28;20455;-72
2022/05/23 11:22:05;;;;;;;11.07;4.13;;;;;;;37.72;37.73;101141.25;5010480;28;20456;-70
2022/05/23 11:25:04;;;;;;;10.10;4.80;;;;;;;37.85;37.59;101143.22;5013866;28;20405;-70
2022/05/23 11:35:52;;;;;;;7.80;4.50;;;;;;;37.92;38.42;101128.16;4993987;28;20401;-73
2022/05/23 11:38:20;;;;;;;8.03;4.17;;;;;;;37.71;38.52;101120.72;4992865;28;20913;-74
2022/05/23 11:40:59;;;;;;;9.63;6.27;;;;;;;37.96;38.27;101112.13;4994646;28;20904;-74
2022/05/23 11:43:27;;;;;;;9.40;4.73;;;;;;;37.96;38.14;101108.63;4993610;28;20401;-70
2022/05/23 11:46:05;;;;;;;10.37;5.77;;;;;;;37.92;38.11;101108.41;4993216;28;20421;-70
2022/05/23 11:48:41;;;;;;;8.37;4.90;;;;;;;37.94;38.28;101102.69;4991994;28;20468;-75
2022/05/23 11:51:13;;;;;;;9.20;5.07;;;;;;;37.91;38.23;101102.19;4976510;28;20452;-75
2022/05/23 11:53:59;;;;;;;9.40;5.87;;;;;;;37.94;37.99;101099.97;4993522;28;20457;-75
2022/05/23 11:56:33;;;;;;;11.93;6.03;;;;;;;37.94;38.15;101091.84;4990673;28;20421;-73
2022/05/23 11:59:00;;;;;;;13.33;7.60;;;;;;;38.13;37.88;101085.25;4975815;28;20461;-74
2022/05/23 12:01:29;;;;;;;11.60;6.40;;;;;;;38.18;38.68;101081.63;4976693;28;20414;-77
2022/05/23 12:03:56;;;;;;;15.47;7.13;;;;;;;37.82;39.22;101087.75;4992265;28;20437;-75
2022/05/23 12:06:25;;;;;;;14.00;6.90;;;;;;;38.11;38.53;101083.94;4989640;28;20461;-77
2022/05/23 12:09:02;;;;;;;8.50;5.80;;;;;;;38.01;37.81;101074.13;4988966;28;20465;-78
2022/05/23 12:11:31;;;;;;;7.20;4.73;;;;;;;37.96;38.68;101074.22;4980962;28;21002;-79
2022/05/23 12:14:27;;;;;;;14.90;8.00;;;;;;;38.13;37.73;101070.91;4974500;28;20894;-78
2022/05/23 12:16:56;;;;;;;11.80;7.00;;;;;;;38.17;38.10;101067.28;4983970;28;20541;-79
2022/05/23 12:19:28;;;;;;;9.73;6.20;;;;;;;38.26;38.81;101069.28;4963359;28;20422;-85
2022/05/23 12:22:19;;;;;;;11.17;6.03;;;;;;;38.43;37.58;101070.28;4965032;28;20477;-74
2022/05/23 12:25:10;;;;;;;11.70;6.47;;;;;;;38.27;37.82;101050.03;4974605;28;20413;-75
2022/05/23 12:27:45;;;;;;;8.80;5.73;;;;;;;38.42;36.92;101048.88;4989102;28;20940;-74
2022/05/23 12:30:17;;;;;;;13.00;5.17;;;;;;;38.11;37.80;101041.38;4998838;28;20855;-74
2022/05/23 12:32:47;;;;;;;10.93;4.77;;;;;;;38.13;37.87;101027.56;4985874;28;20441;-74
2022/05/23 12:35:16;;;;;;;19.23;5.90;;;;;;;38.07;36.83;101024.16;4975879;28;20452;-74